createdAt,value
2022-08-07T00:02:59.367Z,102618.28
2022-08-07T00:08:02.259Z,102620.97
2022-08-07T00:13:23.538Z,102616.66
2022-08-07T00:18:28.646Z,102618.28
2022-08-07T00:23:41.576Z,102617.22
2022-08-07T00:28:45.993Z,102614.13
2022-08-07T00:33:57.168Z,102614.13
2022-08-07T00:38:59.799Z,102615.19
2022-08-07T00:44:02.969Z,102611.38
2022-08-07T00:49:04.655Z,102607.06
2022-08-07T00:54:07.647Z,102603.44
2022-08-07T00:59:14.122Z,102595.81
2022-08-07T01:04:24.784Z,102588.84
2022-08-07T01:10:03.845Z,102593.00
2022-08-07T01:14:48.534Z,102593.75
2022-08-07T01:20:06.540Z,102584.88
2022-08-07T01:25:54.154Z,102594.28
2022-08-07T01:30:38.788Z,102583.50
2022-08-07T01:35:54.130Z,102585.94
2022-08-07T01:41:02.481Z,102581.28
2022-08-07T01:46:05.254Z,102585.09
2022-08-07T01:51:58.723Z,102577.78
2022-08-07T01:56:49.337Z,102571.91
2022-08-07T02:03:05.700Z,102576.78
2022-08-07T02:07:50.624Z,102577.09
2022-08-07T02:13:03.233Z,102575.72
2022-08-07T02:18:29.943Z,102566.38
2022-08-07T02:23:36.676Z,102569.31
2022-08-07T02:28:40.665Z,102566.22
2022-08-07T02:34:03.930Z,102566.91
2022-08-07T02:39:43.004Z,102570.88
2022-08-07T02:44:49.806Z,102560.66
2022-08-07T02:49:59.567Z,102560.66
2022-08-07T02:55:27.715Z,102557.91
2022-08-07T03:00:35.187Z,102559.47
2022-08-07T03:05:39.444Z,102559.09
2022-08-07T03:10:47.133Z,102554.41
2022-08-07T03:15:56.559Z,102557.88
2022-08-07T03:21:04.356Z,102561.56
2022-08-07T03:26:08.638Z,102553.22
2022-08-07T03:31:43.409Z,102559.09
2022-08-07T03:36:48.752Z,102558.03
2022-08-07T03:41:51.536Z,102542.63
2022-08-07T03:47:13.144Z,102541.75
2022-08-07T03:52:26.219Z,102540.22
2022-08-07T03:58:34.194Z,102535.16
2022-08-07T04:02:56.791Z,102528.56
2022-08-07T04:08:05.290Z,102531.88
2022-08-07T04:13:07.811Z,102536.38
2022-08-07T04:18:56.261Z,102542.06
2022-08-07T04:23:43.457Z,102538.97
2022-08-07T04:29:03.117Z,102553.88
2022-08-07T04:34:06.807Z,102556.63
2022-08-07T04:39:25.454Z,102553.38
2022-08-07T04:44:28.481Z,102558.41
2022-08-07T04:50:03.932Z,102557.50
2022-08-07T04:55:14.987Z,102551.44
2022-08-07T05:01:13.337Z,102550.34
2022-08-07T05:06:42.929Z,102574.28
2022-08-07T05:11:58.079Z,102572.69
2022-08-07T05:17:11.663Z,102562.72
2022-08-07T05:22:19.111Z,102564.63
2022-08-07T05:28:02.974Z,102557.03
2022-08-07T05:32:55.858Z,102563.63
2022-08-07T05:38:09.055Z,102561.88
2022-08-07T05:43:14.018Z,102570.75
2022-08-07T05:48:19.907Z,102564.31
2022-08-07T05:54:12.982Z,102574.00
2022-08-07T05:58:52.431Z,102573.31
2022-08-07T06:04:01.243Z,102572.94
2022-08-07T06:09:10.833Z,102579.00
2022-08-07T06:14:20.755Z,102577.28
2022-08-07T06:19:57.779Z,102577.25
2022-08-07T06:24:56.778Z,102588.50
2022-08-07T06:30:00.957Z,102599.25
2022-08-07T06:35:03.390Z,102598.38
2022-08-07T06:40:21.069Z,102600.22
2022-08-07T06:45:25.186Z,102601.38
2022-08-07T06:50:33.510Z,102595.59
2022-08-07T06:55:53.431Z,102600.59
2022-08-07T07:01:11.920Z,102602.69
2022-08-07T07:06:26.568Z,102593.53
2022-08-07T07:12:09.603Z,102591.00
2022-08-07T07:16:59.807Z,102589.19
2022-08-07T07:22:05.289Z,102584.06
2022-08-07T07:27:17.033Z,102578.88
2022-08-07T07:32:21.870Z,102573.59
2022-08-07T07:37:49.432Z,102569.97
2022-08-07T07:42:54.196Z,102583.63
2022-08-07T07:47:58.871Z,102580.91
2022-08-07T07:53:02.447Z,102572.59
2022-08-07T07:58:05.915Z,102583.94
2022-08-07T08:03:16.737Z,102566.38
2022-08-07T08:08:35.088Z,102577.16
2022-08-07T08:13:53.910Z,102573.00
2022-08-07T08:19:00.531Z,102569.00
2022-08-07T08:24:44.881Z,102570.22
2022-08-07T08:29:56.236Z,102562.78
2022-08-07T08:35:00.006Z,102563.25
2022-08-07T08:40:02.819Z,102564.81
2022-08-07T08:45:14.746Z,102572.09
2022-08-07T08:50:35.144Z,102579.84
2022-08-07T08:55:53.915Z,102576.50
2022-08-07T09:01:16.195Z,102572.59
2022-08-07T09:06:47.945Z,102574.09
2022-08-07T09:12:20.283Z,102571.81
2022-08-07T09:18:16.888Z,102565.47
2022-08-07T09:24:33.733Z,102558.34
2022-08-07T09:30:04.374Z,102553.72
2022-08-07T09:36:04.048Z,102554.66
2022-08-07T09:40:47.976Z,102554.47
2022-08-07T09:47:25.421Z,102556.41
2022-08-07T09:52:16.848Z,102548.72
2022-08-07T09:57:46.767Z,102543.38
2022-08-07T10:08:15.810Z,102532.41
2022-08-07T10:14:04.410Z,102532.19
2022-08-07T10:19:45.745Z,102520.25
2022-08-07T10:24:55.073Z,102519.16
2022-08-07T10:30:12.351Z,102511.16
2022-08-07T10:35:56.561Z,102504.13
2022-08-07T10:41:52.083Z,102506.94
2022-08-07T10:46:50.063Z,102502.50
2022-08-07T10:52:02.121Z,102507.69
2022-08-07T10:57:18.277Z,102500.28
2022-08-07T11:03:01.031Z,102492.78
2022-08-07T11:08:17.804Z,102487.03
2022-08-07T11:14:46.028Z,102495.16
2022-08-07T11:20:24.370Z,102492.78
2022-08-07T11:25:48.054Z,102488.66
2022-08-07T11:31:08.703Z,102487.78
2022-08-07T11:37:04.326Z,102479.44
2022-08-07T11:42:18.701Z,102480.16
2022-08-07T11:47:55.973Z,102480.31
2022-08-07T11:53:16.926Z,102468.41
2022-08-07T11:59:22.245Z,102460.81
2022-08-07T12:04:45.984Z,102459.81
2022-08-07T12:10:05.831Z,102457.63
2022-08-07T12:15:46.034Z,102451.97
2022-08-07T12:20:55.977Z,102467.94
2022-08-07T12:26:29.061Z,102452.78
2022-08-07T12:31:52.914Z,102462.25
2022-08-07T12:37:08.128Z,102452.44
2022-08-07T12:42:22.876Z,102452.69
2022-08-07T12:47:37.848Z,102450.41
2022-08-07T12:52:55.263Z,102451.72
2022-08-07T12:58:02.007Z,102456.03
2022-08-07T13:03:55.013Z,102444.75
2022-08-07T13:10:20.354Z,102442.91
2022-08-07T13:15:29.294Z,102442.72
2022-08-07T13:20:51.064Z,102432.50
2022-08-07T13:26:35.563Z,102430.41
2022-08-07T13:31:59.947Z,102422.72
2022-08-07T13:37:40.895Z,102428.28
2022-08-07T13:42:44.070Z,102413.22
2022-08-07T13:48:05.540Z,102422.34
2022-08-07T13:53:10.469Z,102419.66
2022-08-07T13:58:36.227Z,102419.63
2022-08-07T14:04:07.754Z,102422.34
2022-08-07T14:09:09.970Z,102413.66
2022-08-07T14:14:25.249Z,102421.84
2022-08-07T14:20:43.150Z,102430.63
2022-08-07T14:25:17.733Z,102424.38
2022-08-07T14:30:32.354Z,102413.34
2022-08-07T14:41:03.888Z,102414.97
2022-08-07T14:46:08.536Z,102411.09
2022-08-07T14:51:16.160Z,102409.34
2022-08-07T15:01:51.107Z,102402.22
2022-08-07T15:06:53.782Z,102398.06
2022-08-07T15:12:07.947Z,102405.81
2022-08-07T15:17:16.770Z,102400.53
2022-08-07T15:22:31.145Z,102409.03
2022-08-07T15:27:41.112Z,102400.09
2022-08-07T15:33:19.196Z,102394.69
2022-08-07T15:38:32.924Z,102394.03
2022-08-07T15:44:03.655Z,102395.06
2022-08-07T15:49:12.869Z,102382.13
2022-08-07T15:54:17.926Z,102387.44
2022-08-07T15:59:38.949Z,102382.66
2022-08-07T16:04:44.264Z,102378.41
2022-08-07T16:09:57.311Z,102367.34
2022-08-07T16:15:54.899Z,102371.88
2022-08-07T16:21:44.106Z,102365.38
2022-08-07T16:26:34.826Z,102358.25
2022-08-07T16:31:49.994Z,102365.94
2022-08-07T16:38:03.832Z,102373.75
2022-08-07T16:42:59.308Z,102361.47
2022-08-07T16:48:28.647Z,102354.00
2022-08-07T16:54:06.439Z,102364.91
2022-08-07T16:59:46.962Z,102364.75
2022-08-07T17:05:15.191Z,102366.16
2022-08-07T17:10:54.271Z,102366.25
2022-08-07T17:16:02.384Z,102354.59
2022-08-07T17:21:18.419Z,102353.19
2022-08-07T17:26:36.820Z,102344.97
2022-08-07T17:32:02.929Z,102342.06
2022-08-07T17:38:06.543Z,102349.63
2022-08-07T17:42:59.418Z,102340.75
2022-08-07T17:48:12.923Z,102348.78
2022-08-07T17:53:59.812Z,102340.69
2022-08-07T17:59:04.019Z,102336.00
2022-08-07T18:04:48.025Z,102336.72
2022-08-07T18:10:06.470Z,102346.69
2022-08-07T18:15:22.653Z,102343.16
2022-08-07T18:21:04.307Z,102341.94
2022-08-07T18:26:05.293Z,102342.56
2022-08-07T18:31:23.909Z,102347.13
2022-08-07T18:36:53.709Z,102351.09
2022-08-07T18:42:06.580Z,102339.91
2022-08-07T18:47:22.624Z,102347.31
2022-08-07T18:52:37.700Z,102351.69
2022-08-07T18:57:58.650Z,102349.97
2022-08-07T19:03:16.020Z,102358.63
2022-08-07T19:08:28.910Z,102354.75
2022-08-07T19:13:45.817Z,102364.03
2022-08-07T19:19:03.929Z,102369.88
2022-08-07T19:24:30.835Z,102366.63
2022-08-07T19:31:04.457Z,102375.91
2022-08-07T19:35:07.037Z,102384.50
2022-08-07T19:40:10.690Z,102384.97
2022-08-07T19:46:06.154Z,102395.06
2022-08-07T19:50:46.550Z,102399.16
2022-08-07T19:55:58.018Z,102400.03
2022-08-07T20:01:01.735Z,102407.78
2022-08-07T20:06:06.274Z,102405.09
2022-08-07T20:11:34.197Z,102402.50
2022-08-07T20:16:48.055Z,102398.19
2022-08-07T20:21:57.538Z,102401.84
2022-08-07T20:27:07.510Z,102409.78
2022-08-07T20:32:11.419Z,102400.06
2022-08-07T20:37:29.537Z,102405.19
2022-08-07T20:42:33.615Z,102401.09
2022-08-07T20:47:56.724Z,102407.28
2022-08-07T20:53:00.237Z,102406.03
2022-08-07T20:58:12.024Z,102406.59
2022-08-07T21:03:23.180Z,102403.81
2022-08-07T21:08:38.043Z,102402.50
2022-08-07T21:14:16.164Z,102407.78
2022-08-07T21:19:14.016Z,102405.81
2022-08-07T21:24:27.299Z,102410.06
2022-08-07T21:30:00.741Z,102419.97
2022-08-07T21:35:17.252Z,102415.47
2022-08-07T21:40:58.397Z,102416.13
2022-08-07T21:46:24.521Z,102419.13
2022-08-07T21:51:51.170Z,102408.97
2022-08-07T21:57:44.456Z,102423.09
2022-08-07T22:03:06.602Z,102422.19
2022-08-07T22:08:10.532Z,102419.09
2022-08-07T22:13:15.268Z,102426.19
2022-08-07T22:18:35.715Z,102429.34
2022-08-07T22:23:53.168Z,102438.78
2022-08-07T22:29:33.878Z,102438.06
2022-08-07T22:35:13.004Z,102440.47
2022-08-07T22:40:43.077Z,102449.41
2022-08-07T22:46:40.812Z,102442.69
2022-08-07T22:52:10.063Z,102448.22
2022-08-07T22:57:37.194Z,102449.41
2022-08-07T23:02:58.588Z,102448.00
2022-08-07T23:08:04.840Z,102450.50
2022-08-07T23:13:22.137Z,102445.03
2022-08-07T23:19:13.659Z,102437.09
2022-08-07T23:24:47.658Z,102432.19
2022-08-07T23:30:39.500Z,102447.69
2022-08-07T23:35:58.939Z,102448.91
2022-08-07T23:42:01.383Z,102455.75
2022-08-07T23:47:21.014Z,102446.84
2022-08-07T23:53:49.643Z,102438.88
2022-08-07T23:59:10.553Z,102449.03
